createdAt,value
2019-03-17T00:02:06.935Z,8.00
2019-03-17T00:04:36.054Z,8.00
2019-03-17T00:07:05.128Z,8.00
2019-03-17T00:09:34.934Z,8.00
2019-03-17T00:12:03.954Z,8.10
2019-03-17T00:14:32.936Z,7.90
2019-03-17T00:17:01.983Z,8.00
2019-03-17T00:19:31.040Z,7.90
2019-03-17T00:22:00.134Z,7.90
2019-03-17T00:24:29.199Z,7.90
2019-03-17T00:26:58.663Z,7.80
2019-03-17T00:29:27.589Z,7.80
2019-03-17T00:31:56.501Z,7.70
2019-03-17T00:34:25.508Z,7.80
2019-03-17T00:36:54.440Z,7.70
2019-03-17T00:39:23.406Z,7.80
2019-03-17T00:41:52.616Z,7.80
2019-03-17T00:44:21.597Z,7.80
2019-03-17T00:46:50.608Z,7.70
2019-03-17T00:49:19.576Z,7.70
2019-03-17T00:51:48.472Z,7.80
2019-03-17T00:54:17.449Z,7.80
2019-03-17T00:56:46.437Z,7.70
2019-03-17T00:59:15.452Z,7.70
2019-03-17T01:01:44.443Z,7.50
2019-03-17T01:04:13.478Z,7.60
2019-03-17T01:06:42.520Z,7.50
2019-03-17T01:09:11.464Z,7.50
2019-03-17T01:11:41.233Z,7.50
2019-03-17T01:14:10.293Z,7.50
2019-03-17T01:16:39.140Z,7.70
2019-03-17T01:19:08.042Z,7.60
2019-03-17T01:21:36.982Z,7.60
2019-03-17T01:24:06.062Z,7.50
2019-03-17T01:26:35.079Z,7.50
2019-03-17T01:29:04.179Z,7.40
2019-03-17T01:31:33.417Z,7.50
2019-03-17T01:34:02.475Z,7.40
2019-03-17T01:36:31.452Z,7.50
2019-03-17T01:39:00.541Z,7.60
2019-03-17T01:41:29.468Z,7.50
2019-03-17T01:43:58.467Z,7.40
2019-03-17T01:46:27.489Z,7.30
2019-03-17T01:48:56.470Z,7.40
2019-03-17T01:51:25.448Z,7.40
2019-03-17T01:53:54.461Z,7.40
2019-03-17T01:56:23.426Z,7.50
2019-03-17T01:58:52.461Z,7.60
2019-03-17T02:01:21.467Z,7.50
2019-03-17T02:03:50.476Z,7.40
2019-03-17T02:06:19.540Z,7.50
2019-03-17T02:08:48.518Z,7.50
2019-03-17T02:11:17.567Z,7.40
2019-03-17T02:13:46.820Z,7.40
2019-03-17T02:16:15.837Z,7.40
2019-03-17T02:18:44.842Z,7.40
2019-03-17T02:21:13.845Z,7.30
2019-03-17T02:23:42.985Z,7.40
2019-03-17T02:26:12.151Z,7.50
2019-03-17T02:28:41.148Z,7.50
2019-03-17T02:31:10.278Z,7.60
2019-03-17T02:33:39.965Z,7.50
2019-03-17T02:36:09.820Z,7.50
2019-03-17T02:38:38.797Z,7.60
2019-03-17T02:41:07.919Z,7.50
2019-03-17T02:43:37.899Z,7.50
2019-03-17T02:46:06.975Z,7.60
2019-03-17T02:48:37.020Z,7.60
2019-03-17T02:51:06.059Z,7.50
2019-03-17T02:53:35.154Z,7.50
2019-03-17T02:56:04.117Z,7.50
2019-03-17T02:58:33.196Z,7.50
2019-03-17T03:01:02.226Z,7.50
2019-03-17T03:03:31.231Z,7.60
2019-03-17T03:06:00.201Z,7.60
2019-03-17T03:08:29.361Z,7.60
2019-03-17T03:10:58.553Z,7.70
2019-03-17T03:13:27.978Z,7.80
2019-03-17T03:15:57.141Z,7.60
2019-03-17T03:18:27.250Z,7.70
2019-03-17T03:20:56.310Z,7.60
2019-03-17T03:23:25.297Z,7.60
2019-03-17T03:25:54.397Z,7.60
2019-03-17T03:28:23.555Z,7.70
2019-03-17T03:30:52.703Z,7.60
2019-03-17T03:33:22.564Z,7.70
2019-03-17T03:35:51.637Z,7.70
2019-03-17T03:38:20.714Z,7.70
2019-03-17T03:40:49.856Z,7.60
2019-03-17T03:43:22.123Z,7.70
2019-03-17T03:45:51.156Z,7.60
2019-03-17T03:48:20.225Z,7.60
2019-03-17T03:50:49.268Z,7.60
2019-03-17T03:53:18.273Z,7.60
2019-03-17T03:55:49.979Z,7.60
2019-03-17T03:58:19.040Z,7.60
2019-03-17T04:00:48.032Z,7.60
2019-03-17T04:03:17.146Z,7.50
2019-03-17T04:05:46.253Z,7.60
2019-03-17T04:08:15.330Z,7.50
2019-03-17T04:10:44.269Z,7.40
2019-03-17T04:13:13.146Z,7.50
2019-03-17T04:15:42.198Z,7.50
2019-03-17T04:18:11.247Z,7.50
2019-03-17T04:20:40.128Z,7.60
2019-03-17T04:23:09.172Z,7.60
2019-03-17T04:25:38.283Z,7.60
2019-03-17T04:28:07.289Z,7.70
2019-03-17T04:30:36.405Z,7.70
2019-03-17T04:33:05.573Z,7.70
2019-03-17T04:35:34.896Z,7.70
2019-03-17T04:38:03.896Z,7.70
2019-03-17T04:40:32.973Z,7.60
2019-03-17T04:43:01.854Z,7.70
2019-03-17T04:45:30.821Z,7.70
2019-03-17T04:47:59.696Z,7.70
2019-03-17T04:50:28.726Z,7.70
2019-03-17T04:52:57.745Z,7.70
2019-03-17T04:55:26.712Z,7.80
2019-03-17T04:57:55.599Z,7.60
2019-03-17T05:00:24.584Z,7.80
2019-03-17T05:02:53.564Z,7.70
2019-03-17T05:05:22.514Z,7.70
2019-03-17T05:07:51.476Z,7.70
2019-03-17T05:10:22.754Z,7.70
2019-03-17T05:12:51.103Z,7.70
2019-03-17T05:15:20.112Z,7.70
2019-03-17T05:17:49.223Z,7.70
2019-03-17T05:20:18.280Z,7.80
2019-03-17T05:22:47.242Z,7.80
2019-03-17T05:25:16.345Z,7.80
2019-03-17T05:27:45.343Z,7.80
2019-03-17T05:30:16.415Z,7.70
2019-03-17T05:32:45.477Z,7.80
2019-03-17T05:35:14.626Z,7.70
2019-03-17T05:37:43.690Z,7.80
2019-03-17T05:40:12.697Z,7.70
2019-03-17T05:42:41.760Z,7.70
2019-03-17T05:45:13.023Z,7.80
2019-03-17T05:47:42.037Z,7.80
2019-03-17T05:50:11.116Z,7.80
2019-03-17T05:52:40.164Z,7.80
2019-03-17T05:55:09.089Z,7.80
2019-03-17T05:57:38.238Z,7.70
2019-03-17T06:00:08.684Z,7.70
2019-03-17T06:02:37.654Z,7.60
2019-03-17T06:05:07.541Z,7.70
2019-03-17T06:07:36.521Z,7.70
2019-03-17T06:10:05.717Z,7.70
2019-03-17T06:12:34.706Z,7.80
2019-03-17T06:15:03.728Z,7.70
2019-03-17T06:17:32.629Z,7.70
2019-03-17T06:20:01.654Z,7.70
2019-03-17T06:22:30.600Z,7.70
2019-03-17T06:24:59.550Z,7.70
2019-03-17T06:27:28.450Z,7.80
2019-03-17T06:29:57.512Z,7.70
2019-03-17T06:32:26.529Z,7.70
2019-03-17T06:34:55.554Z,7.70
2019-03-17T06:37:31.085Z,7.70
2019-03-17T06:39:55.306Z,7.80
2019-03-17T06:42:24.334Z,7.60
2019-03-17T06:44:53.280Z,7.50
2019-03-17T06:47:22.352Z,7.60
2019-03-17T06:49:51.406Z,7.60
2019-03-17T06:52:20.474Z,7.50
2019-03-17T06:54:49.584Z,7.50
2019-03-17T06:57:18.755Z,7.50
2019-03-17T06:59:47.786Z,7.40
2019-03-17T07:02:16.793Z,7.30
2019-03-17T07:04:45.793Z,7.30
2019-03-17T07:07:14.925Z,7.30
2019-03-17T07:09:43.832Z,7.20
2019-03-17T07:12:12.908Z,7.20
2019-03-17T07:14:41.938Z,7.30
2019-03-17T07:17:10.851Z,7.20
2019-03-17T07:19:39.897Z,7.20
2019-03-17T07:22:08.879Z,7.20
2019-03-17T07:24:37.749Z,7.20
2019-03-17T07:27:06.791Z,7.30
2019-03-17T07:29:36.237Z,7.20
2019-03-17T07:32:05.300Z,7.30
2019-03-17T07:34:35.395Z,7.30
2019-03-17T07:37:04.404Z,7.30
2019-03-17T07:39:33.483Z,7.20
2019-03-17T07:42:02.356Z,7.10
2019-03-17T07:44:32.065Z,7.30
2019-03-17T07:47:01.057Z,7.20
2019-03-17T07:49:30.022Z,7.20
2019-03-17T07:51:59.109Z,7.30
2019-03-17T07:54:28.157Z,7.40
2019-03-17T07:56:57.212Z,7.50
2019-03-17T07:59:26.186Z,7.40
2019-03-17T08:01:55.325Z,7.30
2019-03-17T08:04:24.332Z,7.20
2019-03-17T08:06:53.466Z,7.30
2019-03-17T08:09:22.487Z,7.00
2019-03-17T08:11:51.547Z,7.10
2019-03-17T08:14:20.576Z,7.00
2019-03-17T08:16:49.509Z,7.00
2019-03-17T08:19:18.547Z,6.90
2019-03-17T08:21:47.484Z,7.10
2019-03-17T08:24:16.591Z,7.00
2019-03-17T08:26:45.913Z,7.00
2019-03-17T08:29:15.035Z,7.00
2019-03-17T08:31:44.241Z,6.90
2019-03-17T08:34:15.039Z,7.00
2019-03-17T08:36:44.040Z,7.00
2019-03-17T08:39:13.046Z,7.10
2019-03-17T08:41:41.924Z,7.10
2019-03-17T08:44:10.978Z,7.10
2019-03-17T08:46:39.869Z,7.20
2019-03-17T08:49:08.757Z,7.20
2019-03-17T08:51:37.881Z,7.20
2019-03-17T08:54:06.808Z,7.40
2019-03-17T08:56:36.188Z,7.50
2019-03-17T08:59:05.170Z,7.40
2019-03-17T09:01:34.046Z,7.50
2019-03-17T09:04:03.066Z,7.50
2019-03-17T09:06:32.110Z,7.50
2019-03-17T09:09:01.453Z,7.50
2019-03-17T09:11:30.374Z,7.60
2019-03-17T09:13:59.338Z,7.50
2019-03-17T09:16:28.117Z,7.50
2019-03-17T09:18:57.184Z,7.40
2019-03-17T09:21:26.139Z,7.40
2019-03-17T09:23:55.228Z,7.30
2019-03-17T09:26:24.288Z,7.20
2019-03-17T09:28:53.151Z,7.20
2019-03-17T09:31:22.173Z,7.10
2019-03-17T09:33:51.316Z,7.00
2019-03-17T09:36:22.991Z,6.90
2019-03-17T09:38:53.733Z,6.80
2019-03-17T09:41:23.075Z,6.80
2019-03-17T09:43:52.370Z,6.80
2019-03-17T09:46:21.481Z,6.80
2019-03-17T09:48:50.578Z,6.70
2019-03-17T09:51:19.984Z,6.70
2019-03-17T09:53:49.389Z,6.80
2019-03-17T09:56:20.866Z,6.70
2019-03-17T09:58:49.642Z,6.70
2019-03-17T10:01:18.917Z,6.70
2019-03-17T10:03:48.178Z,6.80
2019-03-17T10:06:19.371Z,6.60
2019-03-17T10:08:59.825Z,6.60
2019-03-17T10:11:25.729Z,6.60
2019-03-17T10:13:55.283Z,6.50
2019-03-17T10:16:24.682Z,6.40
2019-03-17T10:18:53.927Z,6.10
2019-03-17T10:21:23.154Z,6.20
2019-03-17T10:23:52.372Z,5.90
2019-03-17T10:26:21.355Z,5.90
2019-03-17T10:28:50.809Z,6.00
2019-03-17T10:31:20.154Z,5.90
2019-03-17T10:33:49.391Z,3.30
2019-03-17T10:36:19.307Z,5.80
2019-03-17T10:38:48.429Z,5.90
2019-03-17T10:41:17.525Z,5.70
2019-03-17T10:43:46.771Z,5.60
2019-03-17T10:46:15.798Z,5.30
2019-03-17T10:48:44.820Z,5.30
2019-03-17T10:51:13.911Z,5.30
2019-03-17T10:53:43.060Z,5.30
2019-03-17T10:56:12.305Z,5.30
2019-03-17T10:58:41.427Z,5.30
2019-03-17T11:01:10.691Z,5.20
2019-03-17T11:03:39.856Z,5.10
2019-03-17T11:06:09.128Z,4.90
2019-03-17T11:08:39.894Z,5.00
2019-03-17T11:11:11.989Z,5.00
2019-03-17T11:13:40.507Z,4.80
2019-03-17T11:16:09.624Z,4.70
2019-03-17T11:18:38.839Z,4.60
2019-03-17T11:21:07.978Z,4.60
2019-03-17T11:23:37.236Z,4.60
2019-03-17T11:26:06.410Z,4.80
2019-03-17T11:28:38.093Z,4.90
2019-03-17T11:31:18.541Z,4.90
2019-03-17T11:33:49.133Z,5.00
2019-03-17T11:36:18.343Z,4.90
2019-03-17T11:38:47.460Z,4.90
2019-03-17T11:41:17.069Z,4.90
2019-03-17T11:43:46.702Z,5.00
2019-03-17T11:46:15.827Z,5.10
2019-03-17T11:48:45.767Z,5.00
2019-03-17T11:51:19.107Z,5.00
2019-03-17T11:53:48.439Z,5.30
2019-03-17T11:56:17.586Z,5.10
2019-03-17T11:58:46.683Z,5.20
2019-03-17T12:01:18.000Z,5.20
2019-03-17T12:03:46.830Z,5.80
2019-03-17T12:06:15.904Z,5.20
2019-03-17T12:08:45.111Z,5.30
2019-03-17T12:11:17.857Z,5.50
2019-03-17T12:13:50.806Z,5.50
2019-03-17T12:16:20.132Z,5.60
2019-03-17T12:18:49.697Z,5.60
2019-03-17T12:21:22.072Z,5.80
2019-03-17T12:23:52.675Z,6.00
2019-03-17T12:26:23.892Z,6.10
2019-03-17T12:29:04.302Z,6.20
2019-03-17T12:31:33.378Z,6.20
2019-03-17T12:34:02.403Z,6.40
2019-03-17T12:36:31.404Z,6.60
2019-03-17T12:39:00.399Z,6.70
2019-03-17T12:41:29.291Z,6.70
2019-03-17T12:43:59.087Z,6.60
2019-03-17T12:46:28.063Z,6.90
2019-03-17T12:48:57.071Z,6.80
2019-03-17T12:51:26.567Z,6.60
2019-03-17T12:53:55.708Z,6.80
2019-03-17T12:56:26.490Z,6.80
2019-03-17T12:59:01.113Z,7.00
2019-03-17T13:01:30.574Z,7.10
2019-03-17T13:04:00.047Z,7.20
2019-03-17T13:06:30.979Z,7.20
2019-03-17T13:09:01.202Z,7.30
2019-03-17T13:11:30.690Z,7.30
2019-03-17T13:14:07.010Z,7.30
2019-03-17T13:16:36.417Z,7.30
2019-03-17T13:19:05.521Z,7.40
2019-03-17T13:21:34.681Z,7.40
2019-03-17T13:24:03.815Z,7.30
2019-03-17T13:26:32.878Z,7.20
2019-03-17T13:29:02.077Z,7.50
2019-03-17T13:31:31.060Z,7.40
2019-03-17T13:34:00.408Z,7.80
2019-03-17T13:36:31.437Z,7.90
2019-03-17T13:39:00.715Z,8.30
2019-03-17T13:41:29.849Z,8.50
2019-03-17T13:44:00.288Z,8.20
2019-03-17T13:46:29.523Z,7.80
2019-03-17T13:48:58.656Z,7.30
2019-03-17T13:51:27.991Z,7.10
2019-03-17T13:53:56.917Z,6.90
2019-03-17T13:56:26.289Z,7.00
2019-03-17T13:58:55.694Z,7.30
2019-03-17T14:01:24.905Z,7.60
2019-03-17T14:03:55.022Z,7.90
2019-03-17T14:06:24.352Z,9.90
2019-03-17T14:08:53.571Z,7.60
2019-03-17T14:11:22.898Z,8.40
2019-03-17T14:13:52.118Z,8.70
2019-03-17T14:16:21.563Z,8.60
2019-03-17T14:18:50.897Z,9.50
2019-03-17T14:21:20.214Z,10.30
2019-03-17T14:23:49.682Z,10.90
2019-03-17T14:26:18.916Z,10.10
2019-03-17T14:28:49.226Z,9.10
2019-03-17T14:31:18.501Z,9.40
2019-03-17T14:33:47.601Z,10.40
2019-03-17T14:36:17.021Z,10.90
2019-03-17T14:38:46.213Z,10.60
2019-03-17T14:41:15.517Z,11.00
2019-03-17T14:43:45.042Z,11.00
2019-03-17T14:46:16.445Z,11.50
2019-03-17T14:48:45.452Z,11.50
2019-03-17T14:51:15.379Z,10.40
2019-03-17T14:53:45.056Z,9.70
2019-03-17T14:56:15.549Z,8.90
2019-03-17T14:58:50.648Z,8.40
2019-03-17T15:01:20.976Z,8.00
2019-03-17T15:03:51.249Z,7.70
2019-03-17T15:06:21.555Z,7.40
2019-03-17T15:08:51.954Z,5.80
2019-03-17T15:11:22.778Z,4.60
2019-03-17T15:13:54.858Z,4.30
2019-03-17T15:16:24.245Z,4.40
2019-03-17T15:18:53.354Z,4.60
2019-03-17T15:21:23.057Z,4.80
2019-03-17T15:23:52.305Z,5.40
2019-03-17T15:26:21.609Z,5.00
2019-03-17T15:28:50.931Z,5.00
2019-03-17T15:31:20.193Z,5.10
2019-03-17T15:33:49.350Z,5.20
2019-03-17T15:36:18.622Z,5.20
2019-03-17T15:38:47.821Z,5.40
2019-03-17T15:41:18.815Z,5.70
2019-03-17T15:43:48.114Z,7.20
2019-03-17T15:46:17.401Z,9.30
2019-03-17T15:48:47.197Z,10.10
2019-03-17T15:51:20.761Z,9.50
2019-03-17T15:53:47.429Z,9.40
2019-03-17T15:56:16.698Z,9.50
2019-03-17T15:58:45.803Z,9.60
2019-03-17T16:01:15.244Z,10.40
2019-03-17T16:03:46.197Z,10.70
2019-03-17T16:06:15.622Z,10.40
2019-03-17T16:08:44.922Z,9.90
2019-03-17T16:11:14.025Z,10.40
2019-03-17T16:13:43.533Z,9.90
2019-03-17T16:16:12.801Z,8.80
2019-03-17T16:18:41.741Z,7.80
2019-03-17T16:21:12.462Z,7.50
2019-03-17T16:23:41.551Z,8.30
2019-03-17T16:26:10.667Z,8.50
2019-03-17T16:28:40.597Z,7.40
2019-03-17T16:31:14.787Z,6.90
2019-03-17T16:33:44.082Z,6.50
2019-03-17T16:36:13.641Z,6.10
2019-03-17T16:38:43.156Z,6.00
2019-03-17T16:41:12.579Z,5.80
2019-03-17T16:43:42.085Z,5.80
2019-03-17T16:46:11.207Z,5.60
2019-03-17T16:48:40.498Z,6.20
2019-03-17T16:51:13.022Z,7.10
2019-03-17T16:53:43.417Z,6.60
2019-03-17T16:56:12.509Z,6.00
2019-03-17T16:58:41.615Z,5.80
2019-03-17T17:01:10.690Z,5.60
2019-03-17T17:03:39.817Z,5.40
2019-03-17T17:06:09.223Z,5.30
2019-03-17T17:08:38.642Z,5.30
2019-03-17T17:11:08.097Z,5.30
2019-03-17T17:13:37.447Z,5.30
2019-03-17T17:16:06.503Z,5.20
2019-03-17T17:18:35.593Z,4.90
2019-03-17T17:21:04.818Z,5.10
2019-03-17T17:23:34.004Z,5.00
2019-03-17T17:26:03.248Z,5.20
2019-03-17T17:28:32.388Z,4.80
2019-03-17T17:31:01.306Z,4.80
2019-03-17T17:33:30.369Z,4.90
2019-03-17T17:35:59.289Z,4.80
2019-03-17T17:38:28.579Z,4.70
2019-03-17T17:40:57.572Z,4.60
2019-03-17T17:43:26.635Z,4.60
2019-03-17T17:45:55.647Z,4.40
2019-03-17T17:48:24.709Z,4.40
2019-03-17T17:50:53.702Z,4.40
2019-03-17T17:53:22.695Z,4.40
2019-03-17T17:55:51.826Z,4.40
2019-03-17T17:58:21.366Z,4.50
2019-03-17T18:00:53.417Z,4.50
2019-03-17T18:03:22.399Z,4.50
2019-03-17T18:05:51.526Z,4.50
2019-03-17T18:08:20.818Z,4.50
2019-03-17T18:10:49.706Z,4.60
2019-03-17T18:13:18.740Z,4.60
2019-03-17T18:15:48.679Z,4.60
2019-03-17T18:18:17.913Z,4.60
2019-03-17T18:20:47.119Z,4.50
2019-03-17T18:23:18.364Z,4.30
2019-03-17T18:25:46.899Z,4.30
2019-03-17T18:28:15.951Z,4.30
2019-03-17T18:30:44.966Z,4.20
2019-03-17T18:33:14.266Z,4.20
2019-03-17T18:35:45.075Z,4.20
2019-03-17T18:38:14.232Z,4.20
2019-03-17T18:40:43.503Z,4.10
2019-03-17T18:43:12.496Z,4.00
2019-03-17T18:45:42.783Z,3.90
2019-03-17T18:48:12.300Z,3.90
2019-03-17T18:50:44.376Z,3.90
2019-03-17T18:53:14.354Z,3.80
2019-03-17T18:55:43.459Z,4.00
2019-03-17T18:58:12.738Z,3.90
2019-03-17T19:00:41.945Z,3.80
2019-03-17T19:03:10.988Z,3.90
2019-03-17T19:05:41.442Z,3.90
2019-03-17T19:08:10.650Z,3.90
2019-03-17T19:10:39.648Z,3.80
2019-03-17T19:13:11.821Z,3.80
2019-03-17T19:15:42.608Z,3.80
2019-03-17T19:18:11.637Z,3.70
2019-03-17T19:20:40.778Z,3.70
2019-03-17T19:23:10.091Z,3.70
2019-03-17T19:25:39.355Z,3.70
2019-03-17T19:28:08.373Z,3.60
2019-03-17T19:30:37.438Z,3.50
2019-03-17T19:33:06.433Z,3.50
2019-03-17T19:35:35.485Z,6.50
2019-03-17T19:38:04.513Z,3.50
2019-03-17T19:40:33.614Z,3.50
2019-03-17T19:43:02.592Z,3.40
2019-03-17T19:45:31.562Z,3.30
2019-03-17T19:48:00.560Z,3.40
2019-03-17T19:50:30.430Z,3.40
2019-03-17T19:52:59.473Z,3.40
2019-03-17T19:55:28.496Z,3.40
2019-03-17T19:57:58.012Z,3.30
2019-03-17T20:00:27.192Z,3.30
2019-03-17T20:02:56.604Z,3.30
2019-03-17T20:05:25.587Z,3.30
2019-03-17T20:07:54.581Z,3.30
2019-03-17T20:10:23.613Z,3.50
2019-03-17T20:12:52.810Z,3.40
2019-03-17T20:15:21.900Z,3.40
2019-03-17T20:17:51.895Z,3.30
2019-03-17T20:20:21.192Z,3.20
2019-03-17T20:22:50.190Z,3.30
2019-03-17T20:25:19.179Z,3.20
2019-03-17T20:27:48.214Z,3.30
2019-03-17T20:30:17.354Z,3.30
2019-03-17T20:32:48.396Z,3.30
2019-03-17T20:35:17.509Z,3.20
2019-03-17T20:37:46.498Z,3.30
2019-03-17T20:40:15.494Z,3.40
2019-03-17T20:42:44.636Z,3.30
2019-03-17T20:45:13.801Z,3.00
2019-03-17T20:47:42.822Z,2.70
2019-03-17T20:50:11.932Z,2.60
2019-03-17T20:52:40.903Z,2.50
2019-03-17T20:55:10.029Z,2.50
2019-03-17T20:57:39.032Z,2.40
2019-03-17T21:00:09.738Z,2.50
2019-03-17T21:02:38.930Z,2.60
2019-03-17T21:05:08.375Z,2.50
2019-03-17T21:07:37.301Z,2.50
2019-03-17T21:10:07.389Z,2.30
2019-03-17T21:12:38.315Z,2.20
2019-03-17T21:15:08.895Z,2.10
2019-03-17T21:17:38.239Z,2.10
2019-03-17T21:20:09.122Z,2.00
2019-03-17T21:22:38.113Z,2.00
2019-03-17T21:25:07.209Z,2.00
2019-03-17T21:27:36.259Z,1.90
2019-03-17T21:30:07.526Z,1.80
2019-03-17T21:32:36.549Z,1.90
2019-03-17T21:35:06.854Z,1.80
2019-03-17T21:37:35.898Z,1.90
2019-03-17T21:40:05.504Z,1.70
2019-03-17T21:42:34.793Z,1.60
2019-03-17T21:45:03.929Z,1.70
2019-03-17T21:47:33.199Z,1.60
2019-03-17T21:50:02.544Z,1.70
2019-03-17T21:52:31.824Z,1.70
2019-03-17T21:55:01.168Z,1.60
2019-03-17T21:57:30.553Z,1.70
2019-03-17T21:59:59.999Z,1.60
2019-03-17T22:02:29.133Z,1.70
2019-03-17T22:04:58.224Z,1.80
2019-03-17T22:07:27.336Z,1.90
2019-03-17T22:09:56.394Z,2.00
2019-03-17T22:12:25.695Z,2.10
2019-03-17T22:14:54.811Z,2.30
2019-03-17T22:17:23.880Z,2.30
2019-03-17T22:19:53.035Z,2.40
2019-03-17T22:22:22.521Z,2.40
2019-03-17T22:24:51.591Z,2.50
2019-03-17T22:27:21.341Z,2.50
2019-03-17T22:29:50.526Z,2.40
2019-03-17T22:32:20.219Z,2.30
2019-03-17T22:37:42.381Z,2.30
2019-03-17T22:40:12.101Z,2.30
2019-03-17T22:42:41.400Z,2.20
2019-03-17T22:45:10.916Z,2.20
2019-03-17T22:47:40.205Z,2.20
2019-03-17T22:50:12.109Z,2.10
2019-03-17T22:52:41.463Z,2.10
2019-03-17T22:55:10.933Z,2.10
2019-03-17T22:57:40.263Z,2.10
2019-03-17T23:00:14.722Z,2.10
2019-03-17T23:02:45.216Z,2.00
2019-03-17T23:05:14.307Z,2.00
2019-03-17T23:07:43.286Z,2.00
2019-03-17T23:10:12.294Z,1.90
2019-03-17T23:12:41.172Z,1.90
2019-03-17T23:15:10.633Z,2.00
2019-03-17T23:17:39.672Z,2.00
2019-03-17T23:20:09.299Z,2.10
2019-03-17T23:22:38.688Z,2.00
2019-03-17T23:25:07.846Z,2.00
2019-03-17T23:27:36.883Z,2.00
2019-03-17T23:30:06.710Z,2.00
2019-03-17T23:32:35.743Z,2.00
2019-03-17T23:35:05.037Z,2.10
2019-03-17T23:37:34.136Z,2.10
2019-03-17T23:40:05.057Z,2.10
2019-03-17T23:42:34.158Z,2.20
2019-03-17T23:45:03.118Z,2.20
2019-03-17T23:47:32.079Z,2.20
2019-03-17T23:50:01.278Z,2.20
2019-03-17T23:52:30.340Z,2.20
2019-03-17T23:54:59.460Z,2.00
2019-03-17T23:57:33.411Z,1.90
